| time (UTC) | temp C | wind direction | speed KPH | gust KPH | rain 1hr cm | rain 24hr cm | rain mn cm | humidity % | barometer mb |
| 20260502205017 | 22 | 23 | 8.0 | 17.7 | 0.00 | 0.00 | 0.00 | 22 | 1023.3 |
| 20260502204037 | 22 | 45 | 9.7 | 14.5 | 0.00 | 0.00 | 0.00 | 19 | 1023.4 |
| 20260502203037 | 21 | 135 | 4.8 | 9.7 | 0.00 | 0.00 | 0.00 | 18 | 1023.5 |
| 20260502202017 | 21 | 68 | 4.8 | 9.7 | 0.00 | 0.00 | 0.00 | 20 | 1023.7 |
| 20260502201017 | 21 | 135 | 3.2 | 8.0 | 0.00 | 0.00 | 0.00 | 18 | 1023.7 |
| 20260502200016 | 21 | 158 | 3.2 | 8.0 | 0.00 | 0.00 | 0.00 | 19 | 1023.8 |
| 20260502195036 | 20 | 158 | 3.2 | 8.0 | 0.00 | 0.00 | 0.00 | 19 | 1023.7 |
| 20260502194016 | 20 | 0.0 | 1.6 | 0.00 | 0.00 | 0.00 | 22 | 1023.8 | |
| 20260502193017 | 20 | 90 | 3.2 | 9.7 | 0.00 | 0.00 | 0.00 | 28 | 1024.4 |
| 20260502192016 | 18 | 0 | 1.6 | 6.4 | 0.00 | 0.00 | 0.00 | 22 | 1024.1 |
| 20260502191016 | 18 | 0.0 | 1.6 | 0.00 | 0.00 | 0.00 | 27 | 1024.3 | |
| 20260502190016 | 19 | 45 | 4.8 | 11.3 | 0.00 | 0.00 | 0.00 | 23 | 1024.7 |
| 20260502185016 | 18 | 23 | 6.4 | 11.3 | 0.00 | 0.00 | 0.00 | 23 | 1024.9 |
| 20260502184016 | 18 | 315 | 3.2 | 8.0 | 0.00 | 0.00 | 0.00 | 25 | 1024.6 |
| 20260502183037 | 19 | 0 | 6.4 | 11.3 | 0.00 | 0.00 | 0.00 | 26 | 1025.5 |
| 20260502182016 | 18 | 338 | 4.8 | 6.4 | 0.00 | 0.00 | 0.00 | 30 | 1025.5 |
| 20260502181016 | 17 | 293 | 3.2 | 8.0 | 0.00 | 0.00 | 0.00 | 29 | 1025.2 |
| 20260502164016 | 12 | 315 | 4.8 | 9.7 | 0.00 | 0.00 | 0.00 | 38 | 1025.8 |
| 20260502163016 | 12 | 203 | 3.2 | 8.0 | 0.00 | 0.00 | 0.00 | 40 | 1026.5 |
| 20260502162037 | 12 | 203 | 3.2 | 8.0 | 0.00 | 0.00 | 0.00 | 40 | 1026.6 |
| 20260502161016 | 11 | 248 | 1.6 | 6.4 | 0.00 | 0.00 | 0.00 | 45 | 1026.5 |
| 20260502152017 | 8 | 293 | 1.6 | 4.8 | 0.00 | 0.00 | 0.00 | 52 | 1026.7 |
| 20260502151037 | 7 | 0.0 | 3.2 | 0.00 | 0.00 | 0.00 | 52 | 1026.4 | |
| 20260502123016 | 1 | 135 | 1.6 | 4.8 | 0.00 | 0.00 | 0.00 | 66 | 1027.2 |
| 20260502122015 | 1 | 135 | 1.6 | 4.8 | 0.00 | 0.00 | 0.00 | 65 | 1027.1 |
| 20260502121016 | 1 | 0.0 | 3.2 | 0.00 | 0.00 | 0.00 | 64 | 1027.4 | |
| 20260502115037 | 2 | 0.0 | 0.0 | 0.00 | 0.00 | 0.00 | 61 | 1028.0 | |
| 20260502114016 | 2 | 135 | 1.6 | 4.8 | 0.00 | 0.00 | 0.00 | 61 | 1028.0 |
| 20260502113036 | 2 | 135 | 3.2 | 4.8 | 0.00 | 0.00 | 0.00 | 61 | 1027.7 |
| 20260502112016 | 2 | 135 | 6.4 | 8.0 | 0.00 | 0.00 | 0.00 | 60 | 1027.7 |
| 20260502111036 | 2 | 158 | 6.4 | 8.0 | 0.00 | 0.00 | 0.00 | 62 | 1027.8 |
| 20260502110016 | 2 | 158 | 6.4 | 8.0 | 0.00 | 0.00 | 0.00 | 63 | 1027.3 |
| 20260502105015 | 1 | 158 | 8.0 | 9.7 | 0.00 | 0.00 | 0.00 | 63 | 1027.3 |
| 20260502104016 | 1 | 180 | 3.2 | 8.0 | 0.00 | 0.00 | 0.00 | 63 | 1027.2 |
| 20260502103016 | 2 | 135 | 1.6 | 6.4 | 0.00 | 0.00 | 0.00 | 64 | 1027.2 |
| 20260502102016 | 2 | 68 | 1.6 | 3.2 | 0.00 | 0.00 | 0.00 | 62 | 1027.1 |
| 20260502101036 | 2 | 68 | 1.6 | 4.8 | 0.00 | 0.00 | 0.00 | 60 | 1027.4 |
| 20260502091018 | 3 | 68 | 3.2 | 6.4 | 0.00 | 0.00 | 0.00 | 57 | 1027.2 |
| 20260502070018 | 5 | 180 | 3.2 | 4.8 | 0.00 | 0.00 | 0.00 | 53 | 1026.7 |
| 20260502065017 | 5 | 180 | 1.6 | 3.2 | 0.00 | 0.00 | 0.00 | 52 | 1026.7 |
| 20260502064017 | 5 | 0.0 | 0.0 | 0.00 | 0.00 | 0.00 | 50 | 1026.9 | |
| 20260502063017 | 6 | 180 | 4.8 | 8.0 | 0.00 | 0.00 | 0.00 | 50 | 1026.6 |
| 20260502062017 | 5 | 135 | 3.2 | 4.8 | 0.00 | 0.00 | 0.00 | 51 | 1026.2 |
| 20260502061017 | 6 | 135 | 3.2 | 4.8 | 0.00 | 0.00 | 0.00 | 49 | 1026.5 |
| 20260502060037 | 6 | 90 | 4.8 | 8.0 | 0.00 | 0.00 | 0.00 | 46 | 1026.2 |
| 20260502055017 | 6 | 45 | 4.8 | 6.4 | 0.00 | 0.00 | 0.00 | 47 | 1026.1 |
| 20260502054018 | 7 | 23 | 1.6 | 4.8 | 0.00 | 0.00 | 0.00 | 45 | 1026.2 |
| 20260502053017 | 6 | 45 | 4.8 | 6.4 | 0.00 | 0.00 | 0.00 | 46 | 1025.8 |
| 20260502052017 | 6 | 45 | 3.2 | 6.4 | 0.00 | 0.00 | 0.00 | 45 | 1025.8 |
| 20260502051017 | 7 | 203 | 1.6 | 3.2 | 0.00 | 0.00 | 0.00 | 44 | 1025.8 |
| 20260502050017 | 7 | 203 | 3.2 | 4.8 | 0.00 | 0.00 | 0.00 | 43 | 1025.4 |
| 20260502045017 | 7 | 158 | 3.2 | 9.7 | 0.00 | 0.00 | 0.00 | 42 | 1025.2 |
| 20260502044017 | 7 | 135 | 6.4 | 9.7 | 0.00 | 0.00 | 0.00 | 44 | 1025.2 |
| 20260502043017 | 8 | 180 | 12.9 | 16.1 | 0.00 | 0.00 | 0.00 | 42 | 1025.1 |
| 20260502042017 | 9 | 203 | 8.0 | 11.3 | 0.00 | 0.00 | 0.00 | 39 | 1025.4 |
| 20260502041017 | 10 | 180 | 11.3 | 16.1 | 0.00 | 0.00 | 0.00 | 38 | 1025.9 |
| 20260502040017 | 10 | 135 | 11.3 | 17.7 | 0.00 | 0.00 | 0.00 | 34 | 1025.0 |
| 20260502035017 | 9 | 158 | 8.0 | 11.3 | 0.00 | 0.00 | 0.00 | 37 | 1024.6 |
| 20260502034017 | 9 | 270 | 1.6 | 4.8 | 0.00 | 0.00 | 0.00 | 37 | 1024.5 |
| 20260502033017 | 10 | 270 | 3.2 | 8.0 | 0.00 | 0.00 | 0.00 | 36 | 1024.0 |
| 20260502032058 | 10 | 293 | 6.4 | 12.9 | 0.00 | 0.00 | 0.00 | 33 | 1024.2 |
| 20260502031017 | 10 | 90 | 14.5 | 17.7 | 0.00 | 0.00 | 0.00 | 35 | 1023.9 |
| 20260502030017 | 11 | 90 | 14.5 | 17.7 | 0.00 | 0.00 | 0.00 | 33 | 1023.8 |
| 20260502025017 | 11 | 90 | 12.9 | 17.7 | 0.00 | 0.00 | 0.00 | 32 | 1023.7 |
| 20260502024058 | 11 | 90 | 16.1 | 22.5 | 0.00 | 0.00 | 0.00 | 32 | 1023.8 |
| 20260502023038 | 12 | 90 | 16.1 | 22.5 | 0.00 | 0.00 | 0.00 | 30 | 1023.0 |
| 20260502022058 | 13 | 90 | 14.5 | 20.9 | 0.00 | 0.00 | 0.00 | 31 | 1023.4 |
| 20260502021016 | 14 | 90 | 11.3 | 14.5 | 0.00 | 0.00 | 0.00 | 29 | 1023.7 |
| 20260502020017 | 15 | 90 | 11.3 | 14.5 | 0.00 | 0.00 | 0.00 | 29 | 1023.3 |
| 20260502015017 | 16 | 90 | 11.3 | 16.1 | 0.00 | 0.00 | 0.00 | 27 | 1023.6 |
| 20260502014037 | 17 | 90 | 11.3 | 14.5 | 0.00 | 0.00 | 0.00 | 24 | 1023.6 |
| 20260502013017 | 17 | 90 | 9.7 | 14.5 | 0.00 | 0.00 | 0.00 | 25 | 1023.8 |
| 20260502012017 | 18 | 90 | 6.4 | 11.3 | 0.00 | 0.00 | 0.00 | 22 | 1024.2 |
| 20260502011016 | 18 | 90 | 9.7 | 12.9 | 0.00 | 0.00 | 0.00 | 21 | 1024.2 |
| 20260502010016 | 20 | 0 | 3.2 | 11.3 | 0.00 | 0.00 | 0.00 | 18 | 1024.2 |
| 20260502005017 | 20 | 23 | 6.4 | 8.0 | 0.00 | 0.00 | 0.00 | 15 | 1024.2 |
| 20260502004016 | 20 | 45 | 4.8 | 9.7 | 0.00 | 0.00 | 0.00 | 13 | 1024.6 |
| 20260502003017 | 20 | 90 | 1.6 | 9.7 | 0.00 | 0.00 | 0.00 | 18 | 1024.4 |
| 20260502002016 | 20 | 180 | 1.6 | 4.8 | 0.00 | 0.00 | 0.00 | 15 | 1024.1 |
| 20260502001016 | 19 | 158 | 4.8 | 8.0 | 0.00 | 0.00 | 0.00 | 16 | 1024.2 |
| 20260502000016 | 20 | 158 | 4.8 | 6.4 | 0.00 | 0.00 | 0.00 | 14 | 1025.0 |
| 20260501235016 | 20 | 90 | 3.2 | 9.7 | 0.00 | 0.00 | 0.00 | 14 | 1025.0 |
| 20260501234016 | 21 | 45 | 4.8 | 11.3 | 0.00 | 0.00 | 0.00 | 18 | 1025.6 |
| 20260501233037 | 20 | 45 | 3.2 | 8.0 | 0.00 | 0.00 | 0.00 | 13 | 1025.2 |
| 20260501232057 | 20 | 203 | 3.2 | 8.0 | 0.00 | 0.00 | 0.00 | 18 | 1025.4 |
| 20260501231017 | 20 | 158 | 4.8 | 8.0 | 0.00 | 0.00 | 0.00 | 18 | 1025.4 |
| 20260501230037 | 20 | 180 | 3.2 | 6.4 | 0.00 | 0.00 | 0.00 | 17 | 1025.8 |
| 20260501225016 | 20 | 180 | 4.8 | 9.7 | 0.00 | 0.00 | 0.00 | 19 | 1025.9 |
| 20260501224016 | 20 | 135 | 3.2 | 11.3 | 0.00 | 0.00 | 0.00 | 17 | 1026.1 |
| 20260501223016 | 20 | 0 | 6.4 | 16.1 | 0.00 | 0.00 | 0.00 | 18 | 1025.7 |
| 20260501222016 | 19 | 338 | 3.2 | 6.4 | 0.00 | 0.00 | 0.00 | 18 | 1025.9 |
| 20260501221017 | 19 | 180 | 6.4 | 9.7 | 0.00 | 0.00 | 0.00 | 17 | 1026.1 |
| 20260501220037 | 19 | 315 | 4.8 | 11.3 | 0.00 | 0.00 | 0.00 | 20 | 1026.3 |
| 20260501215016 | 19 | 158 | 4.8 | 8.0 | 0.00 | 0.00 | 0.00 | 21 | 1026.4 |
| 20260501214016 | 20 | 270 | 6.4 | 9.7 | 0.00 | 0.00 | 0.00 | 21 | 1026.5 |
| 20260501213016 | 18 | 270 | 4.8 | 8.0 | 0.00 | 0.00 | 0.00 | 17 | 1026.5 |
| 20260501212016 | 18 | 158 | 8.0 | 17.7 | 0.00 | 0.00 | 0.00 | 22 | 1026.7 |
| 20260501211016 | 18 | 135 | 8.0 | 12.9 | 0.00 | 0.00 | 0.00 | 22 | 1026.8 |
| 20260501210016 | 19 | 113 | 6.4 | 14.5 | 0.00 | 0.00 | 0.00 | 24 | 1027.3 |